Helm, CA (93627)

4:56 AM PDT on September 01, 2015 (GMT -0700)
GFWS112 | | Change Station
CLOSE
Current Station
Personal Weather Station
Location: Kerman, CA
Elevation: 197 ft
Nearby Weather Stations

Elev 197 ft 36.65 °N, 120.09 °W | Updated 13 minutes ago

Clear
Clear
58.0 °F
Feels Like 58.0 °F
N
0.0
Wind Variable Wind from NNW
Gusts 0.0 mph

Today
High -- | Low -- °F
--% Chance of Precip.
Yesterday
High -- | Low -- °F
Precip. -- in
6:31 AM 7:28 PM
Waning Gibbous, 89% visible
Pressure 29.83 in
Visibility 10.0 miles
Clouds Clear
Dew Point 53 °F
Humidity 84%
Rainfall 0.00 in
Snow Depth Not available.
UV 0 out of 12
Pollen 8.90 out of 12
Air Quality Not available.
Flu Activity Not available.
METAR KNLC 011056Z AUTO 33006KT 10SM CLR 18/06 A2983 RMK AO2 SLP101 T01830056
Pressure 29.83 in
Visibility 10.0 miles
Clouds Clear
Dew Point 53 °F
Humidity 84%
Rainfall 0.00 in
Snow Depth Not available.
UV 0 out of 12
Pollen 8.90 out of 12
Air Quality Not available.
Flu Activity Not available.
METAR KNLC 011056Z AUTO 33006KT 10SM CLR 18/06 A2983 RMK AO2 SLP101 T01830056

10-Day Weather Forecast

×

Almanac

Astronomy

Sep. 01, 2015 Rise Set
Actual Time
Civil Twilight
Nautical Twilight
Astronomical Twilight
Moon
Length of Visible Light
Length of Day
Tomorrow will be .
, % of the Moon is Illuminated

Today's Extremes

State Highs State Lows

Community

WunderPhotos

Upload Photos

1,851,506 photos uploaded!

WunderBlogs® & News

Nearby

Air Quality

  Air Quality AQ Index Pollutant
Not available.

Snow Depth

Station Depth Elevation

Earthquake Activity

City Distance Mag. Time & Date
Minimum magnitude displayed is 2.5.

Coastal Water Temperatures

Place Temperature

Stations

Nearby Weather Stations

Station Location Temp. Windchill Dew Point Humidity Wind Precip. Elev Updated Type